sensor_id;sensor_type;location;lat;lon;timestamp;pressure;altitude;pressure_sealevel;temperature;humidity
71903;BME280;59778;50.310;18.780;2023-07-20T00:05:49;97995.91;;;18.18;91.40
71903;BME280;59778;50.310;18.780;2023-07-20T00:21:11;97997.41;;;18.73;75.99
71903;BME280;59778;50.310;18.780;2023-07-20T00:36:32;98026.97;;;18.93;75.38
71903;BME280;59778;50.310;18.780;2023-07-20T00:51:53;98039.66;;;18.52;82.47
71903;BME280;59778;50.310;18.780;2023-07-20T01:38:19;97989.03;;;17.84;91.66
71903;BME280;59778;50.310;18.780;2023-07-20T01:53:41;98011.13;;;17.67;90.19
71903;BME280;59778;50.310;18.780;2023-07-20T02:09:02;98014.22;;;17.54;91.14
71903;BME280;59778;50.310;18.780;2023-07-20T02:24:23;98045.63;;;17.36;90.46
71903;BME280;59778;50.310;18.780;2023-07-20T02:39:46;98048.19;;;17.21;89.69
71903;BME280;59778;50.310;18.780;2023-07-20T02:55:08;98051.84;;;16.88;90.55
71903;BME280;59778;50.310;18.780;2023-07-20T03:10:31;98072.75;;;16.73;91.00
71903;BME280;59778;50.310;18.780;2023-07-20T03:25:53;98099.66;;;16.76;92.30
71903;BME280;59778;50.310;18.780;2023-07-20T03:41:16;98084.88;;;16.60;94.32
71903;BME280;59778;50.310;18.780;2023-07-20T03:56:37;98093.94;;;16.61;94.75
71903;BME280;59778;50.310;18.780;2023-07-20T04:11:58;98106.66;;;16.67;95.76
71903;BME280;59778;50.310;18.780;2023-07-20T04:27:20;98074.50;;;16.79;97.38
71903;BME280;59778;50.310;18.780;2023-07-20T04:42:42;98124.09;;;16.94;97.43
71903;BME280;59778;50.310;18.780;2023-07-20T04:58:03;98131.28;;;17.17;97.88
71903;BME280;59778;50.310;18.780;2023-07-20T05:13:24;98148.88;;;17.21;97.86
71903;BME280;59778;50.310;18.780;2023-07-20T05:28:46;98170.34;;;17.07;96.25
71903;BME280;59778;50.310;18.780;2023-07-20T05:44:07;98166.91;;;17.33;94.20
71903;BME280;59778;50.310;18.780;2023-07-20T05:59:28;98186.38;;;17.92;92.78
71903;BME280;59778;50.310;18.780;2023-07-20T06:14:52;98172.50;;;18.30;87.23
71903;BME280;59778;50.310;18.780;2023-07-20T06:30:14;98193.22;;;18.65;81.01
71903;BME280;59778;50.310;18.780;2023-07-20T06:45:35;98194.41;;;19.06;83.58
71903;BME280;59778;50.310;18.780;2023-07-20T07:00:57;98203.16;;;19.35;77.17
71903;BME280;59778;50.310;18.780;2023-07-20T07:16:18;98191.88;;;19.83;77.02
71903;BME280;59778;50.310;18.780;2023-07-20T07:31:40;98217.88;;;19.50;77.33
71903;BME280;59778;50.310;18.780;2023-07-20T07:47:01;98217.91;;;19.55;76.59
71903;BME280;59778;50.310;18.780;2023-07-20T08:02:22;98220.56;;;19.92;76.32
71903;BME280;59778;50.310;18.780;2023-07-20T08:17:44;98231.50;;;19.72;78.00
71903;BME280;59778;50.310;18.780;2023-07-20T08:33:05;98222.94;;;20.31;76.09
71903;BME280;59778;50.310;18.780;2023-07-20T08:48:27;98242.06;;;20.62;73.69
71903;BME280;59778;50.310;18.780;2023-07-20T09:03:49;98232.47;;;21.05;72.30
71903;BME280;59778;50.310;18.780;2023-07-20T09:19:11;98236.88;;;21.57;69.39
71903;BME280;59778;50.310;18.780;2023-07-20T09:34:32;98244.66;;;21.40;71.26
71903;BME280;59778;50.310;18.780;2023-07-20T09:50:00;98242.91;;;21.74;70.08
71903;BME280;59778;50.310;18.780;2023-07-20T10:05:23;98225.78;;;22.51;65.92
71903;BME280;59778;50.310;18.780;2023-07-20T10:20:46;98245.03;;;22.18;64.53
71903;BME280;59778;50.310;18.780;2023-07-20T10:36:07;98237.66;;;23.01;61.15
71903;BME280;59778;50.310;18.780;2023-07-20T10:51:29;98221.81;;;23.69;57.73
71903;BME280;59778;50.310;18.780;2023-07-20T11:06:56;98213.06;;;23.86;52.62
71903;BME280;59778;50.310;18.780;2023-07-20T11:22:17;98212.13;;;23.90;51.04
71903;BME280;59778;50.310;18.780;2023-07-20T11:37:40;98210.59;;;23.79;52.55
71903;BME280;59778;50.310;18.780;2023-07-20T11:53:02;98202.41;;;24.59;51.97
71903;BME280;59778;50.310;18.780;2023-07-20T12:08:23;98197.72;;;24.17;51.40
71903;BME280;59778;50.310;18.780;2023-07-20T12:23:45;98170.63;;;25.49;48.49
71903;BME280;59778;50.310;18.780;2023-07-20T12:39:06;98185.81;;;25.56;45.89
71903;BME280;59778;50.310;18.780;2023-07-20T12:54:27;98177.41;;;26.02;43.94
71903;BME280;59778;50.310;18.780;2023-07-20T13:09:48;98163.69;;;24.49;47.62
71903;BME280;59778;50.310;18.780;2023-07-20T13:25:10;98157.44;;;24.76;47.72
71903;BME280;59778;50.310;18.780;2023-07-20T13:40:31;98145.44;;;24.01;47.72
71903;BME280;59778;50.310;18.780;2023-07-20T13:55:57;98173.59;;;23.08;51.51
71903;BME280;59778;50.310;18.780;2023-07-20T14:11:19;98143.13;;;22.79;56.12
71903;BME280;59778;50.310;18.780;2023-07-20T14:26:40;98171.59;;;23.18;55.62
71903;BME280;59778;50.310;18.780;2023-07-20T14:42:01;98198.16;;;23.53;52.06
71903;BME280;59778;50.310;18.780;2023-07-20T14:57:24;98197.69;;;24.60;42.37
71903;BME280;59778;50.310;18.780;2023-07-20T15:12:46;98213.56;;;25.61;38.46
71903;BME280;59778;50.310;18.780;2023-07-20T15:28:07;98217.59;;;24.85;47.40
71903;BME280;59778;50.310;18.780;2023-07-20T15:43:29;98210.88;;;24.49;48.71
71903;BME280;59778;50.310;18.780;2023-07-20T15:58:50;98219.56;;;23.71;51.89
71903;BME280;59778;50.310;18.780;2023-07-20T16:14:12;98221.00;;;23.35;53.24
71903;BME280;59778;50.310;18.780;2023-07-20T16:29:34;98220.63;;;23.18;53.69
71903;BME280;59778;50.310;18.780;2023-07-20T16:44:55;98229.00;;;22.74;53.22
71903;BME280;59778;50.310;18.780;2023-07-20T17:00:16;98244.09;;;22.37;54.07
71903;BME280;59778;50.310;18.780;2023-07-20T17:15:38;98243.72;;;22.00;52.26
71903;BME280;59778;50.310;18.780;2023-07-20T17:31:00;98248.16;;;21.86;53.10
71903;BME280;59778;50.310;18.780;2023-07-20T17:46:21;98250.16;;;21.60;54.50
71903;BME280;59778;50.310;18.780;2023-07-20T18:01:42;98264.53;;;21.47;55.95
71903;BME280;59778;50.310;18.780;2023-07-20T18:17:04;98265.09;;;21.19;58.31
71903;BME280;59778;50.310;18.780;2023-07-20T18:32:25;98274.69;;;20.91;60.19
71903;BME280;59778;50.310;18.780;2023-07-20T18:47:46;98277.16;;;20.62;63.65
71903;BME280;59778;50.310;18.780;2023-07-20T19:03:10;98294.16;;;20.34;65.40
71903;BME280;59778;50.310;18.780;2023-07-20T19:18:32;98304.47;;;20.11;72.49
71903;BME280;59778;50.310;18.780;2023-07-20T19:33:53;98307.69;;;19.19;75.14
71903;BME280;59778;50.310;18.780;2023-07-20T19:49:14;98331.44;;;19.30;76.06
71903;BME280;59778;50.310;18.780;2023-07-20T20:04:36;98338.81;;;19.25;76.61
71903;BME280;59778;50.310;18.780;2023-07-20T20:19:59;98335.03;;;18.77;77.95
71903;BME280;59778;50.310;18.780;2023-07-20T20:35:20;98344.88;;;18.30;81.10
71903;BME280;59778;50.310;18.780;2023-07-20T20:50:41;98337.41;;;18.25;85.50
71903;BME280;59778;50.310;18.780;2023-07-20T21:06:05;98347.31;;;18.26;86.15
71903;BME280;59778;50.310;18.780;2023-07-20T21:21:27;98348.78;;;18.34;85.96
71903;BME280;59778;50.310;18.780;2023-07-20T21:36:48;98348.06;;;18.60;84.98
71903;BME280;59778;50.310;18.780;2023-07-20T21:52:09;98362.00;;;18.75;85.16
71903;BME280;59778;50.310;18.780;2023-07-20T22:07:30;98371.09;;;18.37;86.18
71903;BME280;59778;50.310;18.780;2023-07-20T22:22:51;98368.88;;;18.13;87.63
71903;BME280;59778;50.310;18.780;2023-07-20T22:38:13;98366.59;;;17.71;88.65
71903;BME280;59778;50.310;18.780;2023-07-20T22:53:34;98368.97;;;17.18;89.36
71903;BME280;59778;50.310;18.780;2023-07-20T23:08:55;98368.88;;;16.84;91.40
71903;BME280;59778;50.310;18.780;2023-07-20T23:24:16;98355.81;;;16.63;92.48
71903;BME280;59778;50.310;18.780;2023-07-20T23:39:37;98367.91;;;16.50;92.26
71903;BME280;59778;50.310;18.780;2023-07-20T23:54:59;98360.38;;;16.06;95.54
